createdAt,value
2022-11-14T00:00:43.562Z,94.44
2022-11-14T00:03:29.100Z,95.63
2022-11-14T00:06:14.530Z,94.87
2022-11-14T00:09:00.535Z,94.70
2022-11-14T00:11:45.863Z,95.08
2022-11-14T00:14:32.140Z,95.13
2022-11-14T00:17:18.021Z,94.47
2022-11-14T00:20:05.323Z,95.39
2022-11-14T00:22:50.637Z,94.61
2022-11-14T00:25:35.965Z,95.35
2022-11-14T00:28:21.587Z,94.40
2022-11-14T00:31:07.020Z,95.43
2022-11-14T00:33:52.692Z,95.14
2022-11-14T00:36:38.038Z,94.79
2022-11-14T00:39:23.696Z,94.65
2022-11-14T00:42:09.234Z,95.21
2022-11-14T00:44:54.825Z,95.18
2022-11-14T00:47:40.379Z,94.85
2022-11-14T00:50:25.898Z,95.64
2022-11-14T00:53:11.598Z,95.48
2022-11-14T00:55:56.833Z,95.25
2022-11-14T00:58:42.304Z,95.01
2022-11-14T01:01:27.795Z,94.95
2022-11-14T01:04:13.348Z,95.61
2022-11-14T01:06:58.814Z,95.48
2022-11-14T01:09:44.376Z,95.34
2022-11-14T01:12:29.462Z,95.02
2022-11-14T01:15:15.077Z,94.94
2022-11-14T01:18:00.604Z,95.52
2022-11-14T01:20:47.344Z,95.41
2022-11-14T01:23:32.778Z,95.13
2022-11-14T01:26:17.920Z,95.13
2022-11-14T01:29:03.187Z,95.37
2022-11-14T01:31:48.304Z,95.24
2022-11-14T01:34:33.531Z,94.88
2022-11-14T01:37:18.527Z,95.10
2022-11-14T01:40:04.185Z,95.04
2022-11-14T01:43:17.201Z,95.14
2022-11-14T01:46:24.059Z,95.21
2022-11-14T01:49:21.949Z,94.91
2022-11-14T01:52:18.051Z,95.44
2022-11-14T01:55:07.088Z,95.97
2022-11-14T01:57:52.604Z,95.39
2022-11-14T02:00:38.381Z,95.52
2022-11-14T02:03:24.471Z,95.12
2022-11-14T02:06:13.125Z,95.59
2022-11-14T02:09:02.351Z,95.13
2022-11-14T02:11:48.201Z,94.69
2022-11-14T02:14:35.588Z,94.98
2022-11-14T02:17:30.155Z,94.58
2022-11-14T02:20:21.527Z,94.96
2022-11-14T02:23:06.764Z,95.18
2022-11-14T02:25:52.838Z,95.25
2022-11-14T02:28:38.213Z,95.87
2022-11-14T02:31:23.796Z,94.74
2022-11-14T02:34:08.982Z,94.97
2022-11-14T02:36:54.476Z,95.51
2022-11-14T02:39:39.523Z,95.59
2022-11-14T02:42:25.274Z,95.28
2022-11-14T02:45:12.570Z,95.95
2022-11-14T02:47:57.694Z,95.38
2022-11-14T02:50:43.688Z,95.97
2022-11-14T02:53:28.865Z,95.63
2022-11-14T02:56:14.077Z,96.07
2022-11-14T02:58:59.455Z,95.56
2022-11-14T03:01:44.703Z,95.73
2022-11-14T03:04:30.119Z,96.44
2022-11-14T03:07:15.720Z,96.17
2022-11-14T03:10:01.134Z,95.49
2022-11-14T03:12:46.468Z,96.29
2022-11-14T03:15:31.715Z,95.72
2022-11-14T03:18:17.135Z,96.08
2022-11-14T03:21:10.888Z,96.34
2022-11-14T03:23:56.015Z,96.66
2022-11-14T03:26:41.683Z,96.26
2022-11-14T03:29:27.023Z,96.77
2022-11-14T03:32:12.400Z,96.67
2022-11-14T03:34:59.013Z,96.39
2022-11-14T03:37:44.411Z,96.12
2022-11-14T03:40:29.720Z,96.73
2022-11-14T03:43:15.148Z,97.01
2022-11-14T03:46:02.482Z,96.12
2022-11-14T03:48:48.182Z,96.09
2022-11-14T03:51:33.898Z,96.73
2022-11-14T03:54:19.358Z,96.76
2022-11-14T03:57:04.830Z,96.22
2022-11-14T03:59:50.635Z,96.46
2022-11-14T04:02:36.384Z,96.25
2022-11-14T04:05:23.089Z,96.08
2022-11-14T04:08:08.506Z,96.47
2022-11-14T04:10:53.741Z,96.48
2022-11-14T04:13:39.048Z,96.37
2022-11-14T04:16:24.430Z,96.40
2022-11-14T04:19:10.177Z,96.71
2022-11-14T04:21:55.668Z,96.29
2022-11-14T04:24:41.031Z,96.34
2022-11-14T04:27:26.688Z,96.30
2022-11-14T04:30:12.218Z,96.28
2022-11-14T04:32:57.929Z,96.31
2022-11-14T04:35:43.371Z,96.32
2022-11-14T04:38:29.034Z,96.27
2022-11-14T04:41:14.438Z,96.13
2022-11-14T04:43:59.710Z,96.42
2022-11-14T04:46:45.283Z,96.49
2022-11-14T04:49:31.190Z,96.18
2022-11-14T04:52:16.420Z,96.57
2022-11-14T04:55:01.998Z,96.48
2022-11-14T04:57:47.249Z,96.58
2022-11-14T05:00:32.587Z,96.38
2022-11-14T05:03:18.245Z,96.01
2022-11-14T05:06:04.470Z,96.39
2022-11-14T05:08:50.018Z,96.51
2022-11-14T05:11:35.081Z,96.29
2022-11-14T05:14:20.713Z,96.29
2022-11-14T05:17:06.025Z,96.38
2022-11-14T05:19:51.677Z,96.47
2022-11-14T05:22:37.081Z,96.61
2022-11-14T05:25:23.397Z,96.84
2022-11-14T05:28:08.828Z,96.34
2022-11-14T05:31:01.127Z,96.83
2022-11-14T05:33:47.155Z,97.16
2022-11-14T05:36:32.825Z,97.18
2022-11-14T05:39:18.358Z,96.94
2022-11-14T05:42:03.745Z,96.70
2022-11-14T05:44:49.620Z,96.65
2022-11-14T05:47:34.924Z,96.80
2022-11-14T05:50:20.614Z,97.16
2022-11-14T05:53:06.124Z,97.03
2022-11-14T05:55:51.158Z,96.54
2022-11-14T05:58:37.238Z,97.29
2022-11-14T06:01:22.434Z,97.16
2022-11-14T06:04:07.582Z,97.16
2022-11-14T06:06:52.892Z,96.91
2022-11-14T06:09:38.120Z,97.36
2022-11-14T06:12:23.704Z,97.83
2022-11-14T06:15:09.642Z,97.54
2022-11-14T06:17:55.064Z,97.21
2022-11-14T06:20:40.469Z,96.84
2022-11-14T06:23:25.922Z,97.38
2022-11-14T06:26:20.716Z,97.00
2022-11-14T06:29:05.752Z,97.01
2022-11-14T06:31:50.829Z,97.24
2022-11-14T06:34:36.169Z,97.02
2022-11-14T06:37:21.435Z,97.17
2022-11-14T06:40:07.620Z,97.04
2022-11-14T06:42:55.986Z,97.01
2022-11-14T06:45:42.068Z,97.55
2022-11-14T06:48:27.647Z,96.73
2022-11-14T06:51:15.335Z,97.45
2022-11-14T06:54:00.944Z,97.85
2022-11-14T06:56:46.402Z,96.96
2022-11-14T06:59:31.641Z,96.96
2022-11-14T07:02:21.749Z,97.72
2022-11-14T07:05:07.726Z,97.53
2022-11-14T07:07:53.322Z,97.53
2022-11-14T07:10:39.457Z,97.23
2022-11-14T07:13:24.934Z,97.05
2022-11-14T07:16:09.996Z,97.59
2022-11-14T07:18:56.605Z,97.04
2022-11-14T07:21:42.170Z,97.43
2022-11-14T07:24:27.603Z,97.12
2022-11-14T07:27:13.031Z,97.28
2022-11-14T07:29:58.166Z,97.09
2022-11-14T07:32:43.419Z,96.81
2022-11-14T07:35:28.856Z,96.82
2022-11-14T07:38:14.273Z,96.63
2022-11-14T07:41:05.816Z,96.91
2022-11-14T07:43:51.787Z,96.46
2022-11-14T07:47:12.102Z,96.27
2022-11-14T07:49:57.508Z,96.14
2022-11-14T07:52:42.872Z,96.22
2022-11-14T07:55:28.150Z,95.80
2022-11-14T07:58:13.707Z,95.83
2022-11-14T08:01:02.862Z,95.12
2022-11-14T08:03:48.577Z,94.34
2022-11-14T08:07:06.896Z,94.45
2022-11-14T08:09:52.084Z,93.53
2022-11-14T08:12:39.779Z,94.06
2022-11-14T08:15:24.964Z,93.50
2022-11-14T08:18:10.468Z,93.19
2022-11-14T08:20:57.730Z,93.02
2022-11-14T08:23:45.330Z,93.04
2022-11-14T08:26:34.276Z,92.93
2022-11-14T08:29:20.396Z,92.79
2022-11-14T08:32:05.732Z,93.10
2022-11-14T08:34:50.906Z,93.04
2022-11-14T08:37:36.251Z,93.20
2022-11-14T08:40:21.552Z,93.29
2022-11-14T08:43:07.069Z,92.82
2022-11-14T08:45:52.271Z,92.49
2022-11-14T08:48:37.451Z,93.07
2022-11-14T08:51:22.765Z,92.74
2022-11-14T08:54:08.415Z,92.31
2022-11-14T08:56:53.923Z,91.91
2022-11-14T08:59:39.388Z,92.57
2022-11-14T09:02:24.711Z,91.62
2022-11-14T09:05:10.624Z,91.62
2022-11-14T09:07:56.217Z,91.12
2022-11-14T09:10:41.638Z,91.02
2022-11-14T09:13:27.811Z,90.58
2022-11-14T09:16:13.952Z,90.44
2022-11-14T09:18:59.804Z,90.05
2022-11-14T09:21:45.564Z,89.78
2022-11-14T09:24:31.612Z,88.73
2022-11-14T09:27:17.284Z,88.91
2022-11-14T09:30:02.829Z,89.03
2022-11-14T09:32:48.708Z,88.90
2022-11-14T09:35:34.411Z,89.37
2022-11-14T09:38:20.174Z,88.98
2022-11-14T09:41:45.218Z,88.97
2022-11-14T10:17:48.046Z,89.84
2022-11-14T10:20:35.406Z,89.22
2022-11-14T10:23:47.045Z,89.00
2022-11-14T10:26:38.560Z,87.54
2022-11-14T10:29:51.313Z,87.61
2022-11-14T10:32:48.636Z,88.16
2022-11-14T10:35:44.073Z,88.11
2022-11-14T10:38:36.908Z,88.34
2022-11-14T10:41:49.885Z,87.70
2022-11-14T10:44:38.406Z,88.23
2022-11-14T10:47:25.698Z,87.44
2022-11-14T10:50:23.266Z,87.58
2022-11-14T10:53:23.822Z,87.24
2022-11-14T10:56:12.964Z,87.24
2022-11-14T10:58:58.432Z,86.77
2022-11-14T11:01:46.571Z,87.28
2022-11-14T11:04:35.514Z,87.64
2022-11-14T11:07:45.093Z,87.35
2022-11-14T11:10:50.118Z,87.21
2022-11-14T11:13:36.830Z,87.25
2022-11-14T11:16:24.529Z,87.27
2022-11-14T11:19:27.263Z,87.48
2022-11-14T11:22:39.188Z,87.18
2022-11-14T11:25:27.880Z,86.59
2022-11-14T11:28:22.041Z,86.86
2022-11-14T11:31:09.854Z,86.11
2022-11-14T11:33:55.607Z,86.10
2022-11-14T11:36:47.416Z,86.58
2022-11-14T11:39:39.655Z,84.33
2022-11-14T11:43:23.777Z,84.84
2022-11-14T11:45:43.645Z,85.42
2022-11-14T11:48:38.277Z,85.14
2022-11-14T11:51:27.136Z,85.53
2022-11-14T11:54:22.806Z,85.64
2022-11-14T11:57:20.088Z,85.40
2022-11-14T12:00:22.011Z,86.33
2022-11-14T12:03:14.188Z,85.89
2022-11-14T12:06:24.858Z,86.14
2022-11-14T12:09:48.659Z,86.18
2022-11-14T12:12:44.862Z,86.52
2022-11-14T12:15:55.956Z,86.13
2022-11-14T12:19:03.078Z,86.46
2022-11-14T12:21:59.077Z,86.13
2022-11-14T12:25:06.195Z,85.52
2022-11-14T12:28:08.621Z,85.45
2022-11-14T12:30:59.938Z,85.33
2022-11-14T12:34:01.117Z,85.49
2022-11-14T12:36:47.245Z,85.62
2022-11-14T12:39:33.230Z,85.83
2022-11-14T12:42:21.329Z,85.32
2022-11-14T12:45:42.030Z,85.14
2022-11-14T12:48:27.330Z,85.59
2022-11-14T12:51:30.321Z,85.57
2022-11-14T12:54:43.704Z,84.56
2022-11-14T12:58:19.096Z,85.19
2022-11-14T13:01:11.112Z,85.68
2022-11-14T13:04:23.851Z,85.07
2022-11-14T13:07:39.062Z,85.85
2022-11-14T13:10:30.660Z,86.13
2022-11-14T13:13:35.842Z,86.13
2022-11-14T13:16:50.783Z,85.73
2022-11-14T13:20:04.593Z,85.66
2022-11-14T13:22:50.030Z,85.26
2022-11-14T13:25:35.548Z,84.61
2022-11-14T13:28:38.667Z,84.64
2022-11-14T13:31:36.262Z,85.49
2022-11-14T13:34:45.320Z,85.40
2022-11-14T13:37:42.793Z,85.25
2022-11-14T13:40:38.264Z,85.07
2022-11-14T13:43:44.099Z,84.80
2022-11-14T13:46:55.045Z,85.53
2022-11-14T13:50:00.245Z,85.89
2022-11-14T13:52:48.772Z,85.40
2022-11-14T13:55:52.703Z,85.88
2022-11-14T13:59:22.571Z,85.78
2022-11-14T14:02:11.097Z,85.91
2022-11-14T14:05:11.157Z,85.80
2022-11-14T14:08:53.584Z,85.40
2022-11-14T14:11:57.216Z,85.81
2022-11-14T14:14:51.264Z,85.72
2022-11-14T14:17:43.458Z,85.92
2022-11-14T14:20:36.840Z,87.05
2022-11-14T14:23:31.155Z,86.51
2022-11-14T14:26:44.202Z,86.94
2022-11-14T14:29:56.056Z,86.59
2022-11-14T14:32:41.300Z,87.13
2022-11-14T14:35:31.854Z,86.75
2022-11-14T14:38:26.236Z,87.15
2022-11-14T14:41:14.529Z,86.35
2022-11-14T14:44:00.386Z,86.31
2022-11-14T14:46:45.501Z,86.07
2022-11-14T14:49:39.407Z,86.37
2022-11-14T14:52:34.464Z,87.29
2022-11-14T14:55:26.253Z,87.35
2022-11-14T14:58:23.721Z,86.73
2022-11-14T15:01:15.245Z,86.93
2022-11-14T15:04:09.138Z,87.05
2022-11-14T15:06:57.449Z,86.47
2022-11-14T15:10:01.764Z,85.97
2022-11-14T15:12:47.963Z,85.80
2022-11-14T15:15:34.650Z,85.84
2022-11-14T15:18:31.846Z,86.47
2022-11-14T15:21:20.837Z,85.83
2022-11-14T15:24:23.224Z,86.08
2022-11-14T15:27:20.487Z,85.87
2022-11-14T15:30:19.529Z,86.43
2022-11-14T15:33:25.045Z,86.63
2022-11-14T15:36:13.817Z,86.06
2022-11-14T15:39:24.689Z,86.73
2022-11-14T15:42:21.469Z,86.93
2022-11-14T15:45:28.752Z,86.83
2022-11-14T15:48:18.982Z,87.07
2022-11-14T15:51:04.581Z,87.61
2022-11-14T15:53:52.125Z,87.73
2022-11-14T15:56:37.460Z,87.66
2022-11-14T15:59:23.203Z,87.62
2022-11-14T16:02:58.523Z,87.88
2022-11-14T16:05:46.104Z,88.35
2022-11-14T16:08:31.784Z,88.16
2022-11-14T16:11:17.300Z,87.51
2022-11-14T16:14:02.643Z,87.40
2022-11-14T16:16:47.949Z,87.12
2022-11-14T16:19:33.141Z,86.74
2022-11-14T16:22:18.785Z,87.08
2022-11-14T16:25:04.823Z,87.81
2022-11-14T16:27:50.396Z,87.73
2022-11-14T16:30:35.721Z,88.52
2022-11-14T16:33:20.901Z,87.99
2022-11-14T16:36:06.672Z,88.44
2022-11-14T16:38:52.658Z,88.49
2022-11-14T16:41:38.925Z,87.95
2022-11-14T16:44:24.895Z,88.06
2022-11-14T16:47:14.709Z,88.09
2022-11-14T16:50:01.485Z,87.91
2022-11-14T16:52:46.980Z,88.62
2022-11-14T16:55:32.652Z,88.42
2022-11-14T16:58:18.101Z,89.61
2022-11-14T17:01:03.521Z,88.45
2022-11-14T17:03:49.374Z,89.56
2022-11-14T17:06:34.777Z,89.17
2022-11-14T17:09:20.029Z,89.10
2022-11-14T17:12:06.191Z,89.25
2022-11-14T17:14:51.483Z,89.79
2022-11-14T17:17:37.106Z,89.58
2022-11-14T17:20:22.232Z,89.88
2022-11-14T17:23:07.766Z,90.06
2022-11-14T17:25:53.790Z,90.38
2022-11-14T17:28:40.565Z,90.88
2022-11-14T17:31:26.188Z,90.44
2022-11-14T17:34:11.437Z,91.00
2022-11-14T17:36:56.979Z,90.66
2022-11-14T17:39:42.355Z,91.10
2022-11-14T17:42:28.053Z,91.44
2022-11-14T17:45:13.520Z,91.33
2022-11-14T17:47:59.453Z,91.23
2022-11-14T17:50:44.949Z,90.96
2022-11-14T17:53:32.555Z,91.15
2022-11-14T17:56:23.861Z,91.12
2022-11-14T17:59:09.532Z,91.50
2022-11-14T18:01:59.825Z,90.78
2022-11-14T18:04:46.431Z,90.99
2022-11-14T18:07:33.250Z,91.05
2022-11-14T18:10:18.674Z,91.00
2022-11-14T18:13:05.329Z,91.14
2022-11-14T18:15:50.605Z,91.07
2022-11-14T18:18:37.364Z,91.39
2022-11-14T18:21:24.876Z,91.06
2022-11-14T18:24:12.364Z,90.36
2022-11-14T18:26:59.182Z,91.09
2022-11-14T18:29:44.659Z,91.11
2022-11-14T18:32:30.224Z,91.06
2022-11-14T18:35:15.778Z,90.06
2022-11-14T18:38:01.388Z,91.13
2022-11-14T18:40:47.060Z,91.30
2022-11-14T18:43:33.458Z,90.99
2022-11-14T18:46:21.752Z,91.13
2022-11-14T18:49:07.125Z,91.02
2022-11-14T18:51:52.317Z,90.59
2022-11-14T18:54:38.117Z,91.74
2022-11-14T18:57:23.584Z,91.99
2022-11-14T19:00:09.813Z,91.12
2022-11-14T19:02:54.929Z,91.57
2022-11-14T19:05:40.616Z,91.52
2022-11-14T19:08:26.132Z,91.95
2022-11-14T19:11:33.931Z,91.15
2022-11-14T19:14:20.723Z,91.40
2022-11-14T19:17:07.271Z,91.70
2022-11-14T19:19:55.828Z,91.24
2022-11-14T19:22:41.411Z,91.72
2022-11-14T19:25:27.290Z,91.21
2022-11-14T19:28:12.788Z,91.88
2022-11-14T19:31:02.854Z,91.40
2022-11-14T19:33:48.438Z,92.73
2022-11-14T19:39:39.850Z,91.60
2022-11-14T19:42:25.313Z,92.49
2022-11-14T19:45:11.028Z,91.72
2022-11-14T19:47:56.496Z,92.31
2022-11-14T19:50:41.933Z,92.90
2022-11-14T19:53:27.594Z,92.56
2022-11-14T19:56:18.037Z,92.97
2022-11-14T19:59:09.609Z,92.15
2022-11-14T20:01:56.426Z,93.23
2022-11-14T20:04:43.673Z,93.26
2022-11-14T20:07:30.438Z,92.33
2022-11-14T20:10:16.090Z,92.49
2022-11-14T20:13:01.549Z,92.73
2022-11-14T20:15:47.218Z,92.55
2022-11-14T20:18:32.653Z,93.23
2022-11-14T20:21:21.394Z,93.02
2022-11-14T20:24:06.958Z,92.94
2022-11-14T20:26:52.717Z,92.94
2022-11-14T20:29:38.298Z,93.75
2022-11-14T20:32:24.025Z,93.37
2022-11-14T20:35:09.484Z,92.81
2022-11-14T20:37:55.063Z,93.58
2022-11-14T20:40:40.477Z,92.85
2022-11-14T20:43:25.809Z,93.22
2022-11-14T20:46:16.554Z,92.78
2022-11-14T20:49:04.342Z,93.03
2022-11-14T20:51:49.833Z,92.97
2022-11-14T20:54:35.233Z,92.87
2022-11-14T20:57:21.079Z,93.57
2022-11-14T21:00:07.990Z,93.57
2022-11-14T21:02:53.808Z,93.17
2022-11-14T21:05:39.951Z,93.24
2022-11-14T21:08:25.665Z,93.75
2022-11-14T21:11:18.157Z,93.10
2022-11-14T21:14:04.723Z,93.37
2022-11-14T21:16:50.139Z,92.89
2022-11-14T21:19:35.528Z,93.78
2022-11-14T21:22:21.100Z,92.80
2022-11-14T21:25:06.852Z,92.96
2022-11-14T21:27:52.238Z,93.37
2022-11-14T21:30:37.618Z,93.41
2022-11-14T21:33:23.371Z,92.71
2022-11-14T21:36:30.115Z,93.96
2022-11-14T21:39:16.848Z,93.49
2022-11-14T21:42:03.161Z,93.66
2022-11-14T21:44:48.409Z,93.66
2022-11-14T21:47:34.522Z,92.91
2022-11-14T21:50:19.955Z,92.89
2022-11-14T21:53:16.023Z,93.30
2022-11-14T21:56:18.596Z,93.19
2022-11-14T21:59:13.902Z,92.96
2022-11-14T22:02:18.580Z,93.39
2022-11-14T22:05:04.071Z,93.41
2022-11-14T22:07:49.715Z,93.32
2022-11-14T22:10:35.318Z,93.55
2022-11-14T22:13:20.753Z,93.52
2022-11-14T22:16:07.344Z,93.48
2022-11-14T22:18:53.687Z,93.57
2022-11-14T22:21:39.029Z,94.48
2022-11-14T22:24:24.241Z,94.31
2022-11-14T22:27:10.019Z,94.38
2022-11-14T22:29:55.737Z,93.91
2022-11-14T22:32:41.032Z,93.41
2022-11-14T22:35:26.308Z,93.60
2022-11-14T22:38:11.758Z,94.21
2022-11-14T22:40:58.403Z,93.93
2022-11-14T22:43:43.877Z,94.09
2022-11-14T22:46:29.393Z,94.01
2022-11-14T22:49:19.692Z,94.32
2022-11-14T22:52:06.288Z,93.88
2022-11-14T22:54:51.724Z,94.00
2022-11-14T22:57:37.028Z,94.95
2022-11-14T23:00:22.397Z,94.43
2022-11-14T23:03:07.809Z,94.22
2022-11-14T23:05:53.404Z,94.67
2022-11-14T23:08:39.660Z,94.93
2022-11-14T23:11:27.208Z,94.65
2022-11-14T23:14:14.328Z,94.90
2022-11-14T23:16:59.824Z,95.04
2022-11-14T23:19:45.030Z,94.60
2022-11-14T23:22:30.418Z,94.69
2022-11-14T23:25:16.209Z,94.92
2022-11-14T23:28:01.737Z,95.70
2022-11-14T23:30:47.375Z,95.65
2022-11-14T23:33:33.384Z,95.68
2022-11-14T23:36:19.352Z,95.21
2022-11-14T23:39:04.834Z,94.60
2022-11-14T23:41:50.075Z,95.72
2022-11-14T23:44:35.504Z,94.91
2022-11-14T23:47:21.136Z,95.50
2022-11-14T23:50:06.767Z,95.06
2022-11-14T23:52:52.184Z,94.94
2022-11-14T23:55:38.367Z,95.65
2022-11-14T23:58:25.748Z,94.68
